Time;durP1;ratioP1;P1;durP2;ratioP2;P2;SDS_P1;SDS_P2;PMS_P1;PMS_P2;Temp;Humidity;BMP_temperature;BMP_pressure;BME280_temperature;BME280_humidity;BME280_pressure;Samples;Min_cycle;Max_cycle;Signal;HPM_P1;HPM_P2
2022/03/04 00:02:17;;;;;;;94.13;49.20;;;;;;;;;;5075533;28;20102;-48
2022/03/04 00:04:43;;;;;;;91.88;45.42;;;;;;;;;;5075814;28;20500;-46
2022/03/04 00:07:16;;;;;;;92.03;44.55;;;;;;;;;;5073146;28;20465;-46
2022/03/04 00:09:42;;;;;;;91.25;47.78;;;;;;;;;;5076265;28;20043;-46
2022/03/04 00:12:08;;;;;;;91.20;47.75;;;;;;;;;;5085274;28;20053;-47
2022/03/04 00:14:34;;;;;;;109.80;54.70;;;;;;;;;;5096409;28;20028;-45
2022/03/04 00:17:00;;;;;;;114.45;57.65;;;;;;;;;;5096241;28;20021;-47
2022/03/04 00:19:27;;;;;;;119.22;59.35;;;;;;;;;;5081498;28;20028;-45
2022/03/04 00:21:55;;;;;;;123.57;62.25;;;;;;;;;;5076079;28;20028;-45
2022/03/04 00:24:22;;;;;;;120.47;61.70;;;;;;;;;;5075860;28;20045;-45
2022/03/04 00:26:51;;;;;;;124.13;62.53;;;;;;;;;;5075932;28;20025;-44
2022/03/04 00:29:17;;;;;;;125.70;65.00;;;;;;;;;;5075909;28;20020;-45
2022/03/04 00:31:44;;;;;;;132.50;64.85;;;;;;;;;;5075631;28;20028;-46
2022/03/04 00:34:11;;;;;;;127.32;65.25;;;;;;;;;;5075662;28;20043;-45
2022/03/04 00:36:38;;;;;;;129.35;64.32;;;;;;;;;;5074778;28;20023;-46
2022/03/04 00:39:06;;;;;;;137.02;66.85;;;;;;;;;;5075638;28;20031;-45
2022/03/04 00:41:32;;;;;;;137.23;65.85;;;;;;;;;;5075597;28;20057;-45
2022/03/04 00:43:58;;;;;;;130.48;64.70;;;;;;;;;;5075614;28;20044;-46
2022/03/04 00:46:24;;;;;;;134.88;65.85;;;;;;;;;;5075425;28;20066;-45
2022/03/04 00:48:52;;;;;;;127.47;63.70;;;;;;;;;;5075487;28;20028;-50
2022/03/04 00:51:19;;;;;;;136.32;69.63;;;;;;;;;;5075523;28;20141;-49
2022/03/04 00:53:47;;;;;;;133.75;64.55;;;;;;;;;;5075492;28;20025;-46
2022/03/04 00:56:13;;;;;;;132.57;66.28;;;;;;;;;;5075443;28;20025;-49
2022/03/04 00:58:42;;;;;;;117.82;61.67;;;;;;;;;;5075518;28;20476;-46
2022/03/04 01:01:13;;;;;;;124.03;63.03;;;;;;;;;;5074923;28;20041;-47
2022/03/04 01:03:40;;;;;;;127.67;63.90;;;;;;;;;;5075322;28;20036;-45
2022/03/04 01:06:06;;;;;;;138.52;67.97;;;;;;;;;;5075250;28;20465;-45
2022/03/04 01:08:33;;;;;;;149.18;71.78;;;;;;;;;;5075097;28;20033;-49
2022/03/04 01:10:59;;;;;;;141.90;67.40;;;;;;;;;;5075195;28;20095;-44
2022/03/04 01:13:25;;;;;;;151.25;68.60;;;;;;;;;;5075106;28;20451;-47
2022/03/04 01:15:55;;;;;;;145.23;67.88;;;;;;;;;;5074961;28;20048;-44
2022/03/04 01:18:21;;;;;;;141.70;66.95;;;;;;;;;;5074822;28;20032;-46
2022/03/04 01:20:47;;;;;;;151.60;71.65;;;;;;;;;;5074775;28;20107;-48
2022/03/04 01:23:13;;;;;;;136.23;67.80;;;;;;;;;;5074991;28;20036;-47
2022/03/04 01:25:42;;;;;;;135.52;66.93;;;;;;;;;;5074717;28;20030;-47
2022/03/04 01:28:08;;;;;;;152.05;71.53;;;;;;;;;;5074695;28;20516;-46
2022/03/04 01:30:34;;;;;;;147.80;69.75;;;;;;;;;;5074443;28;20021;-47
2022/03/04 01:33:00;;;;;;;146.80;71.57;;;;;;;;;;5074693;28;20036;-46
2022/03/04 01:35:29;;;;;;;148.43;71.50;;;;;;;;;;5074635;28;20020;-46
2022/03/04 01:37:55;;;;;;;130.73;64.57;;;;;;;;;;5074051;28;20374;-46
2022/03/04 01:40:21;;;;;;;129.68;66.50;;;;;;;;;;5073893;28;20029;-44
2022/03/04 01:42:48;;;;;;;130.68;68.00;;;;;;;;;;5073713;28;20017;-48
2022/03/04 01:45:14;;;;;;;128.48;64.28;;;;;;;;;;5073885;28;20066;-47
2022/03/04 01:47:44;;;;;;;126.68;64.18;;;;;;;;;;5073929;28;20091;-45
2022/03/04 01:50:10;;;;;;;120.45;61.38;;;;;;;;;;5071319;28;20028;-45
2022/03/04 01:52:37;;;;;;;120.88;58.28;;;;;;;;;;5073938;28;20048;-45
2022/03/04 01:55:03;;;;;;;99.50;52.42;;;;;;;;;;5073790;28;20106;-45
2022/03/04 01:57:30;;;;;;;108.55;54.47;;;;;;;;;;5071223;28;20013;-46
2022/03/04 01:59:56;;;;;;;88.65;48.90;;;;;;;;;;5073606;28;20025;-50
2022/03/04 02:02:22;;;;;;;106.20;52.05;;;;;;;;;;5055144;28;20043;-46
2022/03/04 02:04:50;;;;;;;108.25;55.05;;;;;;;;;;5070884;28;20028;-47
2022/03/04 02:07:16;;;;;;;110.20;56.85;;;;;;;;;;5073689;28;20036;-47
2022/03/04 02:09:42;;;;;;;124.57;62.60;;;;;;;;;;5073551;28;20086;-44
2022/03/04 02:12:11;;;;;;;128.60;61.72;;;;;;;;;;5070643;28;20016;-47
2022/03/04 02:14:37;;;;;;;117.20;58.83;;;;;;;;;;5073295;28;20070;-45
2022/03/04 02:17:04;;;;;;;119.88;63.65;;;;;;;;;;5073327;28;20388;-46
2022/03/04 02:19:30;;;;;;;110.22;59.45;;;;;;;;;;5070746;28;20027;-45
2022/03/04 02:22:03;;;;;;;121.90;61.25;;;;;;;;;;5073240;28;20016;-46
2022/03/04 02:24:30;;;;;;;120.30;60.25;;;;;;;;;;5070600;28;20033;-46
2022/03/04 02:26:58;;;;;;;119.28;59.85;;;;;;;;;;5073116;28;20099;-45
2022/03/04 02:29:25;;;;;;;129.00;63.35;;;;;;;;;;5072934;28;20027;-44
2022/03/04 02:31:53;;;;;;;132.43;64.25;;;;;;;;;;5072978;28;20013;-45
2022/03/04 02:34:20;;;;;;;122.82;63.40;;;;;;;;;;5072945;28;20039;-46
2022/03/04 02:36:51;;;;;;;123.95;62.55;;;;;;;;;;5073233;28;20321;-45
2022/03/04 02:39:17;;;;;;;137.50;71.22;;;;;;;;;;5055566;28;20116;-45
2022/03/04 02:41:43;;;;;;;131.35;65.80;;;;;;;;;;5073729;28;20415;-45
2022/03/04 02:44:11;;;;;;;126.50;66.00;;;;;;;;;;5073174;28;20037;-46
2022/03/04 02:46:37;;;;;;;124.50;61.25;;;;;;;;;;5073367;28;20523;-46
2022/03/04 02:49:06;;;;;;;123.75;64.18;;;;;;;;;;5073186;28;20152;-44
2022/03/04 02:51:32;;;;;;;131.25;67.68;;;;;;;;;;5073364;28;20058;-45
2022/03/04 02:53:59;;;;;;;125.18;64.97;;;;;;;;;;5073257;28;20059;-48
2022/03/04 02:56:25;;;;;;;133.38;68.50;;;;;;;;;;5073222;28;20388;-45
2022/03/04 02:58:51;;;;;;;132.52;65.85;;;;;;;;;;5073080;28;20563;-49
2022/03/04 03:01:17;;;;;;;125.53;62.08;;;;;;;;;;5072326;28;20140;-45
2022/03/04 03:03:43;;;;;;;133.32;64.07;;;;;;;;;;5072982;28;20442;-45
2022/03/04 03:06:10;;;;;;;121.50;63.15;;;;;;;;;;5073095;28;20075;-48
2022/03/04 03:08:36;;;;;;;130.20;67.88;;;;;;;;;;5073054;28;20047;-48
2022/03/04 03:11:02;;;;;;;121.95;60.92;;;;;;;;;;5073092;28;20031;-49
2022/03/04 03:13:28;;;;;;;117.40;61.45;;;;;;;;;;5072998;28;20028;-50
2022/03/04 03:15:55;;;;;;;111.50;60.92;;;;;;;;;;5073066;28;20063;-46
2022/03/04 03:18:21;;;;;;;116.53;58.55;;;;;;;;;;5072874;28;20028;-49
2022/03/04 03:20:47;;;;;;;110.25;57.88;;;;;;;;;;5073061;28;20029;-45
2022/03/04 03:23:13;;;;;;;112.55;59.13;;;;;;;;;;5072916;28;20033;-46
2022/03/04 03:25:39;;;;;;;113.28;58.85;;;;;;;;;;5072899;28;20035;-45
2022/03/04 03:28:12;;;;;;;115.47;60.88;;;;;;;;;;5072949;28;20468;-46
2022/03/04 03:30:38;;;;;;;109.45;55.35;;;;;;;;;;5072897;28;20032;-49
2022/03/04 03:33:04;;;;;;;113.18;58.33;;;;;;;;;;5072893;28;20031;-48
2022/03/04 03:35:30;;;;;;;121.25;60.58;;;;;;;;;;5072829;28;20036;-46
2022/03/04 03:37:56;;;;;;;115.82;58.85;;;;;;;;;;5072822;28;20112;-47
2022/03/04 03:40:25;;;;;;;104.43;55.35;;;;;;;;;;5072830;28;20063;-46
2022/03/04 03:42:51;;;;;;;110.82;56.40;;;;;;;;;;5072661;28;20021;-48
2022/03/04 03:45:17;;;;;;;106.80;56.03;;;;;;;;;;5072751;28;20472;-47
2022/03/04 03:47:43;;;;;;;103.65;54.47;;;;;;;;;;5072753;28;20045;-48
2022/03/04 03:50:13;;;;;;;103.18;51.80;;;;;;;;;;5072793;28;20031;-46
2022/03/04 03:52:39;;;;;;;115.32;53.88;;;;;;;;;;5072786;28;20012;-46
2022/03/04 03:55:06;;;;;;;99.82;52.75;;;;;;;;;;5072755;28;20100;-48
2022/03/04 03:57:32;;;;;;;99.60;50.75;;;;;;;;;;5072599;28;20032;-48
2022/03/04 03:59:58;;;;;;;93.95;49.17;;;;;;;;;;5072465;28;20048;-50
2022/03/04 04:02:26;;;;;;;96.63;51.35;;;;;;;;;;5072474;28;20044;-49
2022/03/04 04:04:54;;;;;;;97.57;49.72;;;;;;;;;;5072557;28;20044;-49
2022/03/04 04:07:20;;;;;;;92.95;49.22;;;;;;;;;;5072522;28;20025;-48
2022/03/04 04:09:46;;;;;;;98.68;53.08;;;;;;;;;;5072548;28;20481;-48
2022/03/04 04:12:15;;;;;;;100.68;52.00;;;;;;;;;;5073417;28;20380;-48
2022/03/04 04:14:41;;;;;;;100.75;51.20;;;;;;;;;;5076270;28;20094;-49
2022/03/04 04:17:09;;;;;;;99.55;54.00;;;;;;;;;;5076224;28;20028;-49
2022/03/04 04:19:35;;;;;;;112.80;58.05;;;;;;;;;;5076088;28;20025;-49
2022/03/04 04:22:01;;;;;;;123.57;58.70;;;;;;;;;;5076063;28;20036;-46
2022/03/04 04:24:28;;;;;;;120.55;57.67;;;;;;;;;;5075980;28;20131;-47
2022/03/04 04:26:56;;;;;;;113.60;56.90;;;;;;;;;;5075851;28;20020;-49
2022/03/04 04:29:22;;;;;;;105.88;53.85;;;;;;;;;;5075991;28;20374;-47
2022/03/04 04:31:51;;;;;;;102.88;55.05;;;;;;;;;;5075875;28;20025;-50
2022/03/04 04:34:17;;;;;;;95.32;49.70;;;;;;;;;;5075975;28;20621;-50
2022/03/04 04:36:43;;;;;;;93.85;47.85;;;;;;;;;;5075905;28;20055;-48
2022/03/04 04:39:09;;;;;;;93.90;47.28;;;;;;;;;;5075848;28;20039;-49
2022/03/04 04:41:37;;;;;;;84.82;45.30;;;;;;;;;;5075501;28;20423;-46
2022/03/04 04:44:03;;;;;;;84.43;45.22;;;;;;;;;;5075577;28;20029;-46
2022/03/04 04:46:29;;;;;;;85.28;44.53;;;;;;;;;;5075530;28;20107;-46
2022/03/04 04:48:56;;;;;;;81.68;44.38;;;;;;;;;;5075388;28;20473;-45
2022/03/04 04:51:26;;;;;;;86.30;45.53;;;;;;;;;;5075449;28;20086;-46
2022/03/04 04:53:55;;;;;;;90.28;46.50;;;;;;;;;;5075567;28;20027;-46
2022/03/04 04:56:21;;;;;;;99.80;48.40;;;;;;;;;;5075325;28;20057;-46
2022/03/04 04:58:48;;;;;;;94.70;47.58;;;;;;;;;;5075420;28;20031;-46
2022/03/04 05:01:15;;;;;;;98.40;48.92;;;;;;;;;;5057097;28;20044;-47
2022/03/04 05:03:43;;;;;;;94.50;47.67;;;;;;;;;;5075442;28;20123;-47
2022/03/04 05:06:09;;;;;;;91.90;47.15;;;;;;;;;;5075220;28;20019;-47
2022/03/04 05:08:35;;;;;;;82.93;45.20;;;;;;;;;;5075204;28;20025;-46
2022/03/04 05:11:01;;;;;;;85.65;45.72;;;;;;;;;;5075143;28;20024;-46
2022/03/04 05:13:29;;;;;;;79.10;41.67;;;;;;;;;;5075148;28;20488;-46
2022/03/04 05:15:55;;;;;;;84.82;43.85;;;;;;;;;;5075179;28;20036;-50
2022/03/04 05:18:21;;;;;;;82.35;43.67;;;;;;;;;;5075013;28;20066;-47
2022/03/04 05:20:48;;;;;;;83.57;45.88;;;;;;;;;;5074755;28;20033;-46
2022/03/04 05:23:58;;;;;;;86.30;43.85;;;;;;;;;;5074730;28;20037;-46
2022/03/04 05:26:00;;;;;;;86.78;45.88;;;;;;;;;;5074286;28;20094;-47
2022/03/04 05:28:31;;;;;;;86.00;45.88;;;;;;;;;;5073169;28;20078;-47
2022/03/04 05:30:59;;;;;;;88.13;44.67;;;;;;;;;;5071347;28;20039;-49
2022/03/04 05:33:25;;;;;;;90.55;48.42;;;;;;;;;;5073290;28;20035;-47
2022/03/04 05:35:51;;;;;;;88.40;46.40;;;;;;;;;;5074702;28;20033;-47
2022/03/04 05:38:17;;;;;;;99.40;51.22;;;;;;;;;;5074539;28;20083;-47
2022/03/04 05:40:46;;;;;;;105.30;53.95;;;;;;;;;;5074825;28;20112;-49
2022/03/04 05:43:13;;;;;;;96.68;48.72;;;;;;;;;;5074528;28;20165;-45
2022/03/04 05:45:39;;;;;;;95.47;49.25;;;;;;;;;;5074488;28;20036;-45
2022/03/04 05:48:06;;;;;;;92.95;48.97;;;;;;;;;;5074390;28;20020;-47
2022/03/04 05:50:32;;;;;;;86.00;47.80;;;;;;;;;;5074337;28;20017;-48
2022/03/04 05:52:58;;;;;;;89.22;49.10;;;;;;;;;;5074395;28;20020;-46
2022/03/04 05:55:24;;;;;;;124.03;61.58;;;;;;;;;;5074260;28;20088;-48
2022/03/04 05:57:50;;;;;;;140.70;74.15;;;;;;;;;;5074027;28;20020;-49
2022/03/04 06:00:16;;;;;;;121.30;63.35;;;;;;;;;;5073924;28;20060;-50
2022/03/04 06:02:45;;;;;;;101.90;53.40;;;;;;;;;;5073248;28;20369;-44
2022/03/04 06:05:11;;;;;;;92.28;50.17;;;;;;;;;;5073458;28;20466;-46
2022/03/04 06:07:42;;;;;;;93.63;51.47;;;;;;;;;;5070769;28;20091;-48
2022/03/04 06:10:08;;;;;;;112.73;58.00;;;;;;;;;;5073573;28;20040;-49
2022/03/04 06:12:35;;;;;;;126.80;60.42;;;;;;;;;;5073515;28;20017;-45
2022/03/04 06:15:03;;;;;;;224.85;89.20;;;;;;;;;;5073625;28;20040;-45
2022/03/04 06:17:29;;;;;;;179.85;76.30;;;;;;;;;;5073934;28;20024;-46
2022/03/04 06:19:55;;;;;;;137.60;60.08;;;;;;;;;;5073675;28;20024;-50
2022/03/04 06:22:22;;;;;;;119.60;59.35;;;;;;;;;;5055205;28;20028;-46
2022/03/04 06:24:48;;;;;;;123.07;63.65;;;;;;;;;;5073475;28;20037;-47
2022/03/04 06:27:14;;;;;;;121.07;62.35;;;;;;;;;;5073686;28;20431;-49
2022/03/04 06:29:40;;;;;;;111.40;56.58;;;;;;;;;;5073632;28;20025;-47
2022/03/04 06:32:07;;;;;;;117.28;62.70;;;;;;;;;;5073533;28;20056;-49
2022/03/04 06:34:35;;;;;;;119.38;61.65;;;;;;;;;;5072997;28;20555;-50
2022/03/04 06:37:01;;;;;;;111.15;57.75;;;;;;;;;;5073428;28;20107;-48
2022/03/04 06:39:27;;;;;;;115.30;59.10;;;;;;;;;;5073466;28;20028;-50
2022/03/04 06:41:53;;;;;;;113.30;58.53;;;;;;;;;;5073407;28;20465;-49
2022/03/04 06:44:20;;;;;;;101.28;54.42;;;;;;;;;;5073298;28;20071;-49
2022/03/04 06:46:46;;;;;;;105.63;54.30;;;;;;;;;;5073315;28;20020;-45
2022/03/04 06:49:12;;;;;;;99.97;51.92;;;;;;;;;;5073257;28;20024;-47
2022/03/04 06:51:38;;;;;;;93.05;49.47;;;;;;;;;;5073098;28;20373;-45
2022/03/04 06:54:05;;;;;;;97.82;51.70;;;;;;;;;;5073154;28;20055;-42
2022/03/04 06:56:31;;;;;;;91.75;47.72;;;;;;;;;;5073233;28;20025;-42
2022/03/04 06:58:57;;;;;;;94.65;48.05;;;;;;;;;;5073108;28;20017;-56
2022/03/04 07:01:24;;;;;;;96.85;50.83;;;;;;;;;;5075133;28;20052;-59
2022/03/04 07:03:50;;;;;;;102.85;52.83;;;;;;;;;;5075684;28;20029;-64
2022/03/04 07:06:19;;;;;;;125.68;61.70;;;;;;;;;;5074624;28;20058;-65
2022/03/04 07:08:46;;;;;;;109.85;56.33;;;;;;;;;;5073006;28;20041;-59
2022/03/04 07:11:12;;;;;;;110.53;54.25;;;;;;;;;;5073112;28;20105;-57
2022/03/04 07:13:38;;;;;;;111.85;53.25;;;;;;;;;;5073138;28;20059;-68
2022/03/04 07:16:04;;;;;;;115.20;58.78;;;;;;;;;;5073196;28;20028;-66
2022/03/04 07:18:31;;;;;;;111.25;53.40;;;;;;;;;;5073001;28;20145;-68
2022/03/04 07:20:57;;;;;;;87.07;44.60;;;;;;;;;;5072742;28;20056;-65
2022/03/04 07:23:24;;;;;;;71.35;38.17;;;;;;;;;;5072723;28;20023;-56
2022/03/04 07:25:50;;;;;;;74.05;39.38;;;;;;;;;;5072692;28;20037;-61
2022/03/04 07:28:16;;;;;;;74.43;39.60;;;;;;;;;;5072776;28;20023;-57
2022/03/04 07:30:45;;;;;;;73.28;40.42;;;;;;;;;;5072813;28;20033;-64
2022/03/04 07:33:11;;;;;;;75.95;37.88;;;;;;;;;;5072834;28;20047;-52
2022/03/04 07:35:41;;;;;;;71.57;40.20;;;;;;;;;;5072846;28;20056;-63
2022/03/04 07:38:07;;;;;;;84.90;48.25;;;;;;;;;;5072645;28;20067;-55
2022/03/04 07:40:36;;;;;;;78.40;43.85;;;;;;;;;;5073000;28;20481;-53
2022/03/04 07:43:03;;;;;;;87.25;45.97;;;;;;;;;;5072722;28;20506;-62
2022/03/04 07:45:30;;;;;;;91.03;47.13;;;;;;;;;;5072700;28;20499;-45
2022/03/04 07:47:58;;;;;;;85.43;46.55;;;;;;;;;;5076543;28;20048;-62
2022/03/04 07:50:24;;;;;;;86.35;43.65;;;;;;;;;;5076486;28;20469;-44
2022/03/04 07:52:50;;;;;;;74.30;39.50;;;;;;;;;;5076463;28;20021;-53
2022/03/04 07:55:20;;;;;;;70.38;40.88;;;;;;;;;;5076605;28;20025;-61
2022/03/04 07:57:46;;;;;;;73.90;39.25;;;;;;;;;;5076550;28;20192;-62
2022/03/04 08:00:13;;;;;;;63.58;37.10;;;;;;;;;;5076388;28;20078;-61
2022/03/04 08:02:40;;;;;;;66.63;38.53;;;;;;;;;;5076360;28;20108;-57
2022/03/04 08:05:08;;;;;;;70.65;39.08;;;;;;;;;;5076360;28;20033;-56
2022/03/04 08:07:34;;;;;;;64.32;38.53;;;;;;;;;;5076261;28;20099;-53
2022/03/04 08:10:00;;;;;;;71.22;42.63;;;;;;;;;;5076195;28;20024;-57
2022/03/04 08:12:26;;;;;;;78.65;43.67;;;;;;;;;;5076370;28;20025;-55
2022/03/04 08:14:52;;;;;;;75.88;41.58;;;;;;;;;;5076381;28;20025;-54
2022/03/04 08:17:18;;;;;;;65.32;37.60;;;;;;;;;;5076214;28;20025;-56
2022/03/04 08:19:44;;;;;;;57.13;35.78;;;;;;;;;;5076054;28;20511;-56
2022/03/04 08:22:11;;;;;;;61.90;38.60;;;;;;;;;;5075942;28;20465;-57
2022/03/04 08:24:37;;;;;;;60.25;38.35;;;;;;;;;;5075893;28;20052;-54
2022/03/04 08:27:03;;;;;;;59.63;36.50;;;;;;;;;;5076116;28;20029;-57
2022/03/04 08:29:29;;;;;;;52.47;32.65;;;;;;;;;;5075402;28;20480;-56
2022/03/04 08:31:55;;;;;;;63.25;33.75;;;;;;;;;;5075751;28;20031;-56
2022/03/04 08:34:21;;;;;;;58.42;35.28;;;;;;;;;;5075855;28;20544;-56
2022/03/04 08:36:49;;;;;;;56.83;36.28;;;;;;;;;;5075680;28;20029;-53
2022/03/04 08:39:16;;;;;;;58.08;36.28;;;;;;;;;;5075599;28;20021;-57
2022/03/04 08:41:42;;;;;;;48.22;34.08;;;;;;;;;;5076055;28;20105;-56
2022/03/04 08:44:09;;;;;;;47.03;30.48;;;;;;;;;;5075661;28;20036;-56
2022/03/04 08:46:36;;;;;;;43.55;30.30;;;;;;;;;;5075664;28;20020;-49
2022/03/04 08:49:02;;;;;;;47.03;31.35;;;;;;;;;;5075626;28;20051;-45
2022/03/04 08:51:28;;;;;;;45.40;31.00;;;;;;;;;;5075487;28;20039;-56
2022/03/04 08:53:55;;;;;;;49.42;31.40;;;;;;;;;;5075534;28;20016;-53
2022/03/04 08:56:24;;;;;;;45.25;30.17;;;;;;;;;;5075556;28;20021;-45
2022/03/04 08:58:50;;;;;;;48.17;32.17;;;;;;;;;;5074698;28;20103;-49
2022/03/04 09:01:16;;;;;;;54.00;30.23;;;;;;;;;;5075068;28;20416;-57
2022/03/04 09:03:42;;;;;;;41.05;28.75;;;;;;;;;;5075462;28;20059;-52
2022/03/04 09:06:08;;;;;;;51.55;34.00;;;;;;;;;;5075317;28;20093;-57
2022/03/04 09:08:35;;;;;;;51.72;33.28;;;;;;;;;;5075190;28;20021;-57
2022/03/04 09:11:01;;;;;;;48.70;31.25;;;;;;;;;;5075389;28;20481;-55
2022/03/04 09:13:32;;;;;;;45.08;29.67;;;;;;;;;;5075073;28;20036;-54
2022/03/04 09:15:58;;;;;;;41.95;29.42;;;;;;;;;;5075197;28;20082;-59
2022/03/04 09:18:24;;;;;;;50.72;29.20;;;;;;;;;;5075090;28;20071;-57
2022/03/04 09:20:50;;;;;;;52.30;33.55;;;;;;;;;;5074532;28;20031;-58
2022/03/04 09:23:16;;;;;;;45.08;30.83;;;;;;;;;;5071599;28;20557;-60
2022/03/04 09:25:42;;;;;;;62.85;38.80;;;;;;;;;;5056323;28;20135;-54
2022/03/04 09:28:09;;;;;;;57.40;35.72;;;;;;;;;;5074317;28;20425;-61
2022/03/04 09:30:36;;;;;;;69.05;41.25;;;;;;;;;;5074115;28;20469;-59
2022/03/04 09:33:03;;;;;;;41.90;27.17;;;;;;;;;;5074345;28;20036;-57
2022/03/04 09:35:29;;;;;;;41.17;24.25;;;;;;;;;;5074627;28;20073;-57
2022/03/04 09:37:55;;;;;;;40.35;24.17;;;;;;;;;;5074021;28;20529;-56
2022/03/04 09:40:21;;;;;;;63.90;36.95;;;;;;;;;;5074160;28;20028;-57
2022/03/04 09:42:47;;;;;;;48.33;28.02;;;;;;;;;;5074127;28;20095;-57
2022/03/04 09:45:13;;;;;;;47.47;30.13;;;;;;;;;;5073981;28;20103;-57
2022/03/04 09:47:40;;;;;;;43.60;26.38;;;;;;;;;;5074026;28;20123;-52
2022/03/04 09:50:07;;;;;;;31.25;21.55;;;;;;;;;;5074033;28;20380;-57
2022/03/04 09:52:34;;;;;;;36.22;23.88;;;;;;;;;;5073662;28;20024;-54
2022/03/04 09:55:00;;;;;;;38.65;24.80;;;;;;;;;;5073834;28;20016;-42
2022/03/04 09:57:26;;;;;;;51.45;28.73;;;;;;;;;;5073724;28;20033;-55
2022/03/04 09:59:52;;;;;;;73.72;43.60;;;;;;;;;;5073510;28;20021;-54
2022/03/04 10:02:20;;;;;;;40.95;25.25;;;;;;;;;;5073551;28;20048;-55
2022/03/04 10:04:46;;;;;;;35.50;21.27;;;;;;;;;;5073615;28;20025;-54
2022/03/04 10:07:12;;;;;;;53.30;30.30;;;;;;;;;;5073662;28;20040;-53
2022/03/04 10:09:43;;;;;;;42.88;24.42;;;;;;;;;;5071182;28;20103;-52
2022/03/04 10:12:10;;;;;;;38.67;24.67;;;;;;;;;;5073579;28;20551;-52
2022/03/04 10:14:56;;;;;;;35.22;22.63;;;;;;;;;;5073446;28;20067;-51
2022/03/04 10:17:22;;;;;;;47.63;26.90;;;;;;;;;;5070836;28;20020;-54
2022/03/04 10:19:51;;;;;;;37.90;24.38;;;;;;;;;;5071366;28;20024;-50
2022/03/04 10:22:17;;;;;;;60.67;36.13;;;;;;;;;;5072979;28;20028;-48
2022/03/04 10:24:44;;;;;;;67.68;38.80;;;;;;;;;;5072984;28;20078;-49
2022/03/04 10:27:12;;;;;;;68.18;41.67;;;;;;;;;;5073223;28;20082;-51
2022/03/04 10:29:41;;;;;;;67.22;39.42;;;;;;;;;;5072926;28;20063;-50
2022/03/04 10:32:12;;;;;;;62.38;36.17;;;;;;;;;;5070552;28;20017;-50
2022/03/04 10:34:55;;;;;;;65.18;35.00;;;;;;;;;;5071960;28;20019;-51
2022/03/04 10:37:23;;;;;;;74.32;34.95;;;;;;;;;;5071814;28;20039;-51
2022/03/04 10:40:10;;;;;;;63.53;34.00;;;;;;;;;;5072982;28;20374;-47
2022/03/04 10:42:42;;;;;;;70.60;37.72;;;;;;;;;;5068414;28;20021;-50
2022/03/04 10:45:09;;;;;;;48.30;27.92;;;;;;;;;;5072483;28;20086;-50
2022/03/04 10:47:42;;;;;;;44.72;25.13;;;;;;;;;;5072783;28;20112;-52
2022/03/04 10:50:08;;;;;;;40.17;23.38;;;;;;;;;;5054520;28;20025;-51
2022/03/04 10:52:35;;;;;;;35.97;22.58;;;;;;;;;;5071953;28;20022;-46
2022/03/04 10:55:01;;;;;;;47.10;28.42;;;;;;;;;;5071977;28;20024;-43
2022/03/04 10:57:27;;;;;;;51.72;31.83;;;;;;;;;;5071941;28;20032;-46
2022/03/04 10:59:56;;;;;;;49.88;28.77;;;;;;;;;;5072291;28;20044;-46
2022/03/04 11:02:42;;;;;;;51.63;30.92;;;;;;;;;;5071132;28;20051;-46
2022/03/04 11:05:11;;;;;;;44.25;27.13;;;;;;;;;;5072324;28;20039;-46
2022/03/04 11:07:38;;;;;;;47.80;31.38;;;;;;;;;;5072245;28;20059;-45
2022/03/04 11:10:04;;;;;;;55.00;34.83;;;;;;;;;;5072768;28;20029;-44
2022/03/04 11:12:31;;;;;;;43.20;26.05;;;;;;;;;;5072320;28;20013;-47
2022/03/04 11:14:57;;;;;;;36.50;22.80;;;;;;;;;;5072687;28;20024;-47
2022/03/04 11:17:29;;;;;;;42.35;25.42;;;;;;;;;;5072782;28;20021;-44
2022/03/04 11:19:56;;;;;;;47.20;28.85;;;;;;;;;;5072183;28;20027;-45
2022/03/04 11:22:23;;;;;;;41.88;25.83;;;;;;;;;;5072422;28;20036;-45
2022/03/04 11:24:49;;;;;;;39.95;25.65;;;;;;;;;;5072919;28;20033;-43
2022/03/04 11:27:17;;;;;;;38.10;23.83;;;;;;;;;;5072678;28;20034;-46
2022/03/04 11:29:43;;;;;;;39.67;21.40;;;;;;;;;;5072612;28;20020;-44
2022/03/04 11:32:09;;;;;;;44.50;24.65;;;;;;;;;;5054295;28;20032;-46
2022/03/04 11:34:46;;;;;;;54.08;30.45;;;;;;;;;;5072456;28;20493;-46
2022/03/04 11:37:18;;;;;;;47.58;30.67;;;;;;;;;;5069696;28;20024;-46
2022/03/04 11:40:03;;;;;;;77.47;42.60;;;;;;;;;;5071685;28;20013;-48
2022/03/04 11:42:39;;;;;;;54.70;32.55;;;;;;;;;;5069294;28;20166;-46
2022/03/04 11:45:08;;;;;;;56.42;35.22;;;;;;;;;;5072064;28;20025;-46
2022/03/04 11:47:38;;;;;;;43.03;22.33;;;;;;;;;;5072203;28;20447;-45
2022/03/04 11:50:25;;;;;;;45.13;27.15;;;;;;;;;;5072097;28;20020;-46
2022/03/04 11:52:51;;;;;;;56.00;33.67;;;;;;;;;;5070241;28;20029;-51
2022/03/04 11:55:21;;;;;;;54.00;33.65;;;;;;;;;;5072247;28;20142;-45
2022/03/04 11:57:47;;;;;;;49.03;28.08;;;;;;;;;;5072780;28;20461;-44
2022/03/04 12:00:14;;;;;;;45.10;26.08;;;;;;;;;;5070885;28;20021;-44
2022/03/04 12:02:46;;;;;;;44.75;28.33;;;;;;;;;;5071959;28;20021;-47
2022/03/04 12:05:18;;;;;;;52.67;28.65;;;;;;;;;;5072215;28;20467;-46
2022/03/04 12:07:45;;;;;;;27.95;16.38;;;;;;;;;;5069150;28;20115;-52
2022/03/04 12:10:17;;;;;;;41.13;23.77;;;;;;;;;;5072122;28;20059;-53
2022/03/04 12:13:01;;;;;;;35.05;21.67;;;;;;;;;;5071998;28;20009;-53
2022/03/04 12:15:40;;;;;;;48.13;22.20;;;;;;;;;;5069590;28;20017;-50
2022/03/04 12:18:15;;;;;;;50.47;22.40;;;;;;;;;;5072349;28;20074;-52
2022/03/04 12:20:41;;;;;;;47.42;21.60;;;;;;;;;;5072566;28;20020;-50
2022/03/04 12:23:09;;;;;;;39.03;18.77;;;;;;;;;;5072417;28;20074;-52
2022/03/04 12:25:59;;;;;;;34.03;17.77;;;;;;;;;;5072242;28;20028;-52
2022/03/04 12:28:25;;;;;;;;;;;;;;;;;;5073001;28;20099;-53
2022/03/04 12:31:01;;;;;;;27.85;15.93;;;;;;;;;;5072548;28;19912;-52
2022/03/04 12:33:37;;;;;;;28.85;17.40;;;;;;;;;;5073547;28;20032;-54
2022/03/04 12:36:04;;;;;;;27.23;15.27;;;;;;;;;;5075754;28;20028;-55
2022/03/04 12:38:32;;;;;;;24.38;16.08;;;;;;;;;;5075718;28;20027;-54
2022/03/04 12:40:59;;;;;;;29.98;17.35;;;;;;;;;;5075734;28;20029;-54
2022/03/04 12:43:25;;;;;;;35.65;21.00;;;;;;;;;;5075924;28;20431;-48
2022/03/04 12:45:52;;;;;;;35.53;19.70;;;;;;;;;;5075568;28;20065;-52
2022/03/04 12:48:19;;;;;;;38.22;22.48;;;;;;;;;;5075562;28;20048;-54
2022/03/04 12:50:46;;;;;;;175.55;62.17;;;;;;;;;;5075701;28;20024;-47
2022/03/04 12:53:19;;;;;;;350.73;113.45;;;;;;;;;;5075261;28;20020;-48
2022/03/04 12:55:58;;;;;;;90.72;37.50;;;;;;;;;;5075052;28;20488;-52
2022/03/04 12:58:39;;;;;;;61.40;31.70;;;;;;;;;;5074944;28;20008;-55
2022/03/04 13:01:07;;;;;;;56.97;30.75;;;;;;;;;;5075252;28;20048;-52
2022/03/04 13:03:33;;;;;;;39.97;24.05;;;;;;;;;;5075259;28;20078;-56
2022/03/04 13:05:59;;;;;;;40.92;24.67;;;;;;;;;;5075226;28;20033;-56
2022/03/04 13:08:26;;;;;;;37.63;22.88;;;;;;;;;;5075157;28;20376;-55
2022/03/04 13:10:53;;;;;;;41.40;25.25;;;;;;;;;;5075015;28;20074;-55
2022/03/04 13:13:19;;;;;;;51.50;26.88;;;;;;;;;;5075279;28;20016;-55
2022/03/04 13:15:51;;;;;;;39.58;24.17;;;;;;;;;;5075123;28;20071;-55
2022/03/04 13:18:17;;;;;;;;;;;;;;;;;;5075434;28;20372;-49
2022/03/04 13:21:04;;;;;;;34.03;21.90;;;;;;;;;;5074892;28;19957;-55
2022/03/04 13:23:30;;;;;;;34.45;22.10;;;;;;;;;;5074149;28;20066;-54
2022/03/04 13:26:04;;;;;;;34.35;22.60;;;;;;;;;;5074330;28;20028;-56
2022/03/04 13:28:50;;;;;;;36.08;22.38;;;;;;;;;;5074352;28;20012;-54
2022/03/04 13:31:29;;;;;;;43.47;26.13;;;;;;;;;;5073864;28;20078;-50
2022/03/04 13:33:59;;;;;;;42.53;26.20;;;;;;;;;;5074177;28;20055;-54
2022/03/04 13:36:42;;;;;;;35.70;21.98;;;;;;;;;;5074170;28;20484;-52
2022/03/04 13:39:28;;;;;;;41.42;24.77;;;;;;;;;;5072621;28;20024;-50
2022/03/04 13:42:14;;;;;;;34.13;22.08;;;;;;;;;;5073323;28;20100;-54
2022/03/04 13:44:55;;;;;;;56.65;32.60;;;;;;;;;;5073721;28;20507;-53
2022/03/04 13:47:42;;;;;;;35.92;21.92;;;;;;;;;;5071989;28;20016;-54
2022/03/04 13:50:17;;;;;;;38.92;23.55;;;;;;;;;;5072093;28;20039;-52
2022/03/04 13:53:00;;;;;;;45.80;25.88;;;;;;;;;;5071633;28;20322;-50
2022/03/04 13:55:38;;;;;;;46.05;27.25;;;;;;;;;;5072016;28;20017;-51
2022/03/04 13:58:17;;;;;;;46.50;27.70;;;;;;;;;;5073420;28;20157;-54
2022/03/04 14:00:47;;;;;;;42.47;25.52;;;;;;;;;;5073411;28;20059;-54
2022/03/04 14:03:17;;;;;;;48.78;25.67;;;;;;;;;;5073709;28;20071;-56
2022/03/04 14:05:47;;;;;;;52.58;30.67;;;;;;;;;;5073658;28;20040;-54
2022/03/04 14:08:14;;;;;;;103.05;49.47;;;;;;;;;;5073529;28;20019;-53
2022/03/04 14:10:41;;;;;;;69.93;37.67;;;;;;;;;;5073993;28;20028;-52
2022/03/04 14:13:08;;;;;;;64.07;35.90;;;;;;;;;;5073620;28;20522;-54
2022/03/04 14:15:35;;;;;;;53.83;32.42;;;;;;;;;;5073626;28;20024;-49
2022/03/04 14:18:02;;;;;;;55.70;32.35;;;;;;;;;;5073337;28;20028;-48
2022/03/04 14:20:29;;;;;;;55.03;30.13;;;;;;;;;;5073398;28;20043;-52